Independent, Nebraska
Current Conditions -  °F | °C
As of 7:53 AM on Thursday 27 Nov 2014 (Local Time) from KODX Reporting Station
Overcast Overcast  
Wind Chill: -14°   Ceiling: 4300
Heat Index: -8°   Visibility: 10mi
Dew Point: -12°   Wind: 9mph
Humidity: 74%   Direction: 120°ESE
Pressure: 30.39"   Gusts: NA
Location:  41.4844°N, 98.8112°W
Report Text: KODX 271353Z AUTO 12008KT 10SM BKN043 OVC075 M08/M12 A3039 RMK AO2 SLP328 T10781117
Loading
Personal Weather Stations






























Interactive Weather Map New forecast layout! Learn more

10-Day Weather Forecast

Advertisements
Track Severe Weather on mobile